createdAt,value
2023-02-12T00:02:18.999Z,3.15
2023-02-12T00:05:05.215Z,3.12
2023-02-12T00:07:51.232Z,3.12
2023-02-12T00:10:41.564Z,3.17
2023-02-12T00:13:31.335Z,3.13
2023-02-12T00:16:20.632Z,3.06
2023-02-12T00:19:06.555Z,3.18
2023-02-12T00:21:52.434Z,3.15
2023-02-12T00:24:38.328Z,3.19
2023-02-12T00:27:24.894Z,3.15
2023-02-12T00:30:11.383Z,3.15
2023-02-12T00:32:57.367Z,3.11
2023-02-12T00:35:43.197Z,3.02
2023-02-12T00:38:29.399Z,3.00
2023-02-12T00:41:15.274Z,3.06
2023-02-12T00:44:01.130Z,3.07
2023-02-12T00:46:47.316Z,3.03
2023-02-12T00:49:35.645Z,2.98
2023-02-12T00:52:21.749Z,3.02
2023-02-12T00:55:09.456Z,3.05
2023-02-12T00:57:55.329Z,3.06
2023-02-12T01:00:41.300Z,2.99
2023-02-12T01:03:27.235Z,3.09
2023-02-12T01:06:13.090Z,3.04
2023-02-12T01:08:58.803Z,3.06
2023-02-12T01:11:44.605Z,3.02
2023-02-12T01:14:30.374Z,3.04
2023-02-12T01:17:16.260Z,3.10
2023-02-12T01:20:05.917Z,3.09
2023-02-12T01:22:52.605Z,3.13
2023-02-12T01:25:38.974Z,3.04
2023-02-12T01:28:24.904Z,3.16
2023-02-12T01:31:17.247Z,3.07
2023-02-12T01:34:03.002Z,3.16
2023-02-12T01:36:49.097Z,3.16
2023-02-12T01:39:35.960Z,3.11
2023-02-12T01:42:22.089Z,3.13
2023-02-12T01:45:14.090Z,3.23
2023-02-12T01:48:00.565Z,3.21
2023-02-12T01:50:48.894Z,3.24
2023-02-12T01:53:37.550Z,3.23
2023-02-12T01:56:24.590Z,3.17
2023-02-12T01:59:10.855Z,3.30
2023-02-12T02:01:56.773Z,3.27
2023-02-12T02:04:54.914Z,3.19
2023-02-12T02:07:42.218Z,3.16
2023-02-12T02:10:30.116Z,3.18
2023-02-12T02:13:34.761Z,3.10
2023-02-12T02:16:26.421Z,3.04
2023-02-12T02:19:30.869Z,2.95
2023-02-12T02:22:28.477Z,2.93
2023-02-12T02:25:51.646Z,2.89
2023-02-12T02:29:02.275Z,2.88
2023-02-12T02:31:54.564Z,2.88
2023-02-12T02:35:07.629Z,2.70
2023-02-12T02:38:15.000Z,2.71
2023-02-12T02:41:07.007Z,2.81
2023-02-12T02:43:53.641Z,2.86
2023-02-12T02:46:46.360Z,2.87
2023-02-12T02:49:33.754Z,2.77
2023-02-12T02:52:25.167Z,2.90
2023-02-12T02:55:13.465Z,2.88
2023-02-12T02:58:03.605Z,2.83
2023-02-12T03:00:59.380Z,2.86
2023-02-12T03:03:51.111Z,2.96
2023-02-12T03:06:57.832Z,3.02
2023-02-12T03:09:50.340Z,2.96
2023-02-12T03:12:47.581Z,2.96
2023-02-12T03:15:58.625Z,2.90
2023-02-12T03:19:06.643Z,2.86
2023-02-12T03:21:58.669Z,3.05
2023-02-12T03:24:48.824Z,3.05
2023-02-12T03:27:38.816Z,3.08
2023-02-12T03:30:40.460Z,2.96
2023-02-12T03:33:38.073Z,3.06
2023-02-12T03:36:53.180Z,3.01
2023-02-12T03:39:43.828Z,3.04
2023-02-12T03:42:38.645Z,2.95
2023-02-12T03:45:55.200Z,2.95
2023-02-12T03:48:56.516Z,3.00
2023-02-12T03:51:45.221Z,2.97
2023-02-12T03:54:31.015Z,2.97
2023-02-12T03:57:20.490Z,2.97
2023-02-12T04:00:11.981Z,2.95
2023-02-12T04:03:01.028Z,2.93
2023-02-12T04:05:46.940Z,2.95
2023-02-12T04:08:33.241Z,2.85
2023-02-12T04:11:45.187Z,2.92
2023-02-12T04:14:46.979Z,2.85
2023-02-12T04:17:47.364Z,2.89
2023-02-12T04:20:54.298Z,2.91
2023-02-12T04:23:48.952Z,2.92
2023-02-12T04:26:40.068Z,2.92
2023-02-12T04:29:44.459Z,2.89
2023-02-12T04:32:35.342Z,2.87
2023-02-12T04:35:35.941Z,2.81
2023-02-12T04:38:25.540Z,2.74
2023-02-12T04:41:11.491Z,2.71
2023-02-12T04:43:57.213Z,2.85
2023-02-12T04:46:42.988Z,2.86
2023-02-12T04:49:28.912Z,2.79
2023-02-12T04:52:14.591Z,2.84
2023-02-12T04:55:00.520Z,2.86
2023-02-12T04:57:46.345Z,2.86
2023-02-12T05:00:32.830Z,2.78
2023-02-12T05:03:18.412Z,2.85
2023-02-12T05:06:06.017Z,2.83
2023-02-12T05:08:55.280Z,2.71
2023-02-12T05:11:41.367Z,2.83
2023-02-12T05:14:27.336Z,2.74
2023-02-12T05:17:13.217Z,2.85
2023-02-12T05:19:59.153Z,2.85
2023-02-12T05:22:44.963Z,2.88
2023-02-12T05:25:32.094Z,2.67
2023-02-12T05:28:18.235Z,2.78
2023-02-12T05:31:06.506Z,2.64
2023-02-12T05:33:52.415Z,2.75
2023-02-12T05:36:38.329Z,2.73
2023-02-12T05:39:24.135Z,2.71
2023-02-12T05:42:10.002Z,2.69
2023-02-12T05:44:55.863Z,2.67
2023-02-12T05:47:41.615Z,2.72
2023-02-12T05:50:27.522Z,2.55
2023-02-12T05:53:18.861Z,2.64
2023-02-12T05:56:19.462Z,2.63
2023-02-12T05:59:14.189Z,2.63
2023-02-12T06:02:00.171Z,2.72
2023-02-12T06:04:48.526Z,2.61
2023-02-12T06:07:34.497Z,2.57
2023-02-12T06:10:20.463Z,2.69
2023-02-12T06:13:06.714Z,2.70
2023-02-12T06:15:52.549Z,2.64
2023-02-12T06:18:38.362Z,2.61
2023-02-12T06:21:27.838Z,2.75
2023-02-12T06:24:15.160Z,2.77
2023-02-12T06:27:01.048Z,2.78
2023-02-12T06:29:46.908Z,2.78
2023-02-12T06:32:32.620Z,2.70
2023-02-12T06:35:18.322Z,2.81
2023-02-12T06:38:04.879Z,2.82
2023-02-12T06:40:50.886Z,2.84
2023-02-12T06:43:37.233Z,2.90
2023-02-12T06:46:23.203Z,2.92
2023-02-12T06:49:12.246Z,2.79
2023-02-12T06:51:58.003Z,2.90
2023-02-12T06:54:43.944Z,2.80
2023-02-12T06:57:30.146Z,2.81
2023-02-12T07:00:16.563Z,2.94
2023-02-12T07:03:02.702Z,2.97
2023-02-12T07:05:48.424Z,2.98
2023-02-12T07:08:34.319Z,2.85
2023-02-12T07:11:24.200Z,2.98
2023-02-12T07:14:19.200Z,2.98
2023-02-12T07:17:05.603Z,3.12
2023-02-12T07:19:51.294Z,2.99
2023-02-12T07:22:37.421Z,3.24
2023-02-12T07:25:23.423Z,3.20
2023-02-12T07:28:09.385Z,3.30
2023-02-12T07:30:55.198Z,3.24
2023-02-12T07:33:41.516Z,3.23
2023-02-12T07:36:30.868Z,3.48
2023-02-12T07:39:16.993Z,3.54
2023-02-12T07:42:02.797Z,3.51
2023-02-12T07:44:48.890Z,3.73
2023-02-12T07:47:38.548Z,3.76
2023-02-12T07:50:24.467Z,3.92
2023-02-12T07:53:10.193Z,3.89
2023-02-12T07:55:56.482Z,4.11
2023-02-12T07:58:45.089Z,4.17
2023-02-12T08:01:39.100Z,4.16
2023-02-12T08:04:25.718Z,4.22
2023-02-12T08:07:11.825Z,4.31
2023-02-12T08:09:57.799Z,4.54
2023-02-12T08:12:43.760Z,4.57
2023-02-12T08:15:29.584Z,4.63
2023-02-12T08:18:15.267Z,4.88
2023-02-12T08:21:04.917Z,4.94
2023-02-12T08:23:52.034Z,5.04
2023-02-12T08:26:39.184Z,5.18
2023-02-12T08:29:30.411Z,5.22
2023-02-12T08:32:17.253Z,5.08
2023-02-12T08:35:03.255Z,5.30
2023-02-12T08:37:49.030Z,5.57
2023-02-12T08:40:35.035Z,5.61
2023-02-12T08:43:20.839Z,5.64
2023-02-12T08:46:35.060Z,5.48
2023-02-12T08:49:23.400Z,5.77
2023-02-12T08:52:09.330Z,5.88
2023-02-12T08:54:55.045Z,5.97
2023-02-12T08:57:42.454Z,5.97
2023-02-12T09:00:28.177Z,6.04
2023-02-12T09:03:13.873Z,6.03
2023-02-12T09:06:03.434Z,6.17
2023-02-12T09:08:49.618Z,6.11
2023-02-12T09:11:35.776Z,6.06
2023-02-12T09:14:25.320Z,6.07
2023-02-12T09:17:11.345Z,5.87
2023-02-12T09:19:57.669Z,6.01
2023-02-12T09:22:43.899Z,5.88
2023-02-12T09:25:29.859Z,5.86
2023-02-12T09:28:15.663Z,5.89
2023-02-12T09:31:08.745Z,5.90
2023-02-12T09:33:57.645Z,5.79
2023-02-12T09:36:43.552Z,5.85
2023-02-12T09:39:30.862Z,6.11
2023-02-12T09:42:45.443Z,5.98
2023-02-12T09:45:35.718Z,6.08
2023-02-12T09:48:27.818Z,5.97
2023-02-12T09:51:14.140Z,6.04
2023-02-12T09:54:18.739Z,6.04
2023-02-12T09:57:12.218Z,5.93
2023-02-12T10:00:24.903Z,5.88
2023-02-12T10:03:16.818Z,5.88
2023-02-12T10:06:08.514Z,5.95
2023-02-12T10:09:00.555Z,6.03
2023-02-12T10:12:22.737Z,5.87
2023-02-12T10:15:33.483Z,6.03
2023-02-12T10:18:28.722Z,6.02
2023-02-12T10:21:23.519Z,6.07
2023-02-12T10:24:44.381Z,6.17
2023-02-12T10:27:48.701Z,6.13
2023-02-12T10:30:52.604Z,6.23
2023-02-12T10:33:42.810Z,6.26
2023-02-12T10:36:45.031Z,6.21
2023-02-12T10:39:43.873Z,6.21
2023-02-12T10:42:36.402Z,6.38
2023-02-12T10:45:27.053Z,6.45
2023-02-12T10:48:35.550Z,6.36
2023-02-12T10:51:38.353Z,6.47
2023-02-12T10:54:33.342Z,6.43
2023-02-12T10:57:22.564Z,6.52
2023-02-12T11:00:35.780Z,6.63
2023-02-12T11:03:22.254Z,6.60
2023-02-12T11:06:29.515Z,6.67
2023-02-12T11:09:28.460Z,6.69
2023-02-12T11:12:26.749Z,6.77
2023-02-12T11:15:20.185Z,6.76
2023-02-12T11:18:08.574Z,6.66
2023-02-12T11:20:59.106Z,6.69
2023-02-12T11:23:46.526Z,6.88
2023-02-12T11:26:33.634Z,6.82
2023-02-12T11:29:24.240Z,6.97
2023-02-12T11:32:18.885Z,7.02
2023-02-12T11:35:25.091Z,7.06
2023-02-12T11:38:24.550Z,6.99
2023-02-12T11:41:36.336Z,7.11
2023-02-12T11:44:34.925Z,7.23
2023-02-12T11:47:29.228Z,7.19
2023-02-12T11:50:26.660Z,7.19
2023-02-12T11:53:22.341Z,6.95
2023-02-12T11:56:10.852Z,6.99
2023-02-12T11:59:11.797Z,7.02
2023-02-12T12:02:02.301Z,6.93
2023-02-12T12:04:50.356Z,6.83
2023-02-12T12:07:37.206Z,6.97
2023-02-12T12:10:34.611Z,6.97
2023-02-12T12:13:26.143Z,6.89
2023-02-12T12:16:38.376Z,6.81
2023-02-12T12:19:47.329Z,6.81
2023-02-12T12:22:39.868Z,6.80
2023-02-12T12:25:46.477Z,6.66
2023-02-12T12:28:45.941Z,6.68
2023-02-12T12:31:41.067Z,6.70
2023-02-12T12:34:28.075Z,6.71
2023-02-12T12:37:29.445Z,6.60
2023-02-12T12:40:30.452Z,6.55
2023-02-12T12:43:55.129Z,6.52
2023-02-12T12:46:48.099Z,6.64
2023-02-12T12:49:49.651Z,6.61
2023-02-12T12:52:44.943Z,6.63
2023-02-12T12:56:07.834Z,6.59
2023-02-12T12:59:06.013Z,6.54
2023-02-12T13:01:54.740Z,6.59
2023-02-12T13:04:56.939Z,6.52
2023-02-12T13:08:18.422Z,6.50
2023-02-12T13:11:23.357Z,6.51
2023-02-12T13:14:40.394Z,6.49
2023-02-12T13:17:32.141Z,6.54
2023-02-12T13:20:34.959Z,6.60
2023-02-12T13:23:58.466Z,6.49
2023-02-12T13:26:47.471Z,6.48
2023-02-12T13:29:37.455Z,6.53
2023-02-12T13:32:29.861Z,6.54
2023-02-12T13:35:26.103Z,6.38
2023-02-12T13:38:19.409Z,6.52
2023-02-12T13:41:07.807Z,6.51
2023-02-12T13:44:32.634Z,6.57
2023-02-12T13:47:44.554Z,6.51
2023-02-12T13:50:36.566Z,6.59
2023-02-12T13:53:37.662Z,6.53
2023-02-12T13:56:34.675Z,6.47
2023-02-12T13:59:35.637Z,6.60
2023-02-12T14:02:33.937Z,6.63
2023-02-12T14:05:30.990Z,6.52
2023-02-12T14:08:36.268Z,6.67
2023-02-12T14:11:24.702Z,6.73
2023-02-12T14:14:10.827Z,6.67
2023-02-12T14:16:57.366Z,6.62
2023-02-12T14:19:55.435Z,6.67
2023-02-12T14:22:44.168Z,6.75
2023-02-12T14:25:37.309Z,6.68
2023-02-12T14:28:44.676Z,6.63
2023-02-12T14:31:33.745Z,6.55
2023-02-12T14:34:22.644Z,6.65
2023-02-12T14:37:12.551Z,6.70
2023-02-12T14:40:34.077Z,6.54
2023-02-12T14:43:54.877Z,6.63
2023-02-12T14:47:13.156Z,6.47
2023-02-12T14:50:08.934Z,6.59
2023-02-12T14:52:59.835Z,6.56
2023-02-12T14:55:46.975Z,6.56
2023-02-12T14:58:33.213Z,6.60
2023-02-12T15:01:31.105Z,6.54
2023-02-12T15:04:28.477Z,6.55
2023-02-12T15:07:17.708Z,6.56
2023-02-12T15:10:10.717Z,6.49
2023-02-12T15:13:30.199Z,6.49
2023-02-12T15:16:22.881Z,6.54
2023-02-12T15:19:27.049Z,6.56
2023-02-12T15:22:18.207Z,6.57
2023-02-12T15:25:24.649Z,6.51
2023-02-12T15:28:20.096Z,6.48
2023-02-12T15:31:10.642Z,6.43
2023-02-12T15:33:58.739Z,6.52
2023-02-12T15:36:45.858Z,6.50
2023-02-12T15:39:43.762Z,6.47
2023-02-12T15:42:40.579Z,6.47
2023-02-12T15:45:28.810Z,6.51
2023-02-12T15:48:19.560Z,6.50
2023-02-12T15:51:10.189Z,6.32
2023-02-12T15:53:57.485Z,6.44
2023-02-12T15:56:43.443Z,6.50
2023-02-12T15:59:29.474Z,6.51
2023-02-12T16:02:22.038Z,6.41
2023-02-12T16:05:08.130Z,6.52
2023-02-12T16:07:54.506Z,6.49
2023-02-12T16:10:44.064Z,6.49
2023-02-12T16:13:33.574Z,6.52
2023-02-12T16:16:22.705Z,6.50
2023-02-12T16:19:20.687Z,6.50
2023-02-12T16:22:15.327Z,6.40
2023-02-12T16:25:01.732Z,6.31
2023-02-12T16:28:18.456Z,6.45
2023-02-12T16:31:14.307Z,6.38
2023-02-12T16:34:01.094Z,6.46
2023-02-12T16:36:47.275Z,6.40
2023-02-12T16:39:55.562Z,6.42
2023-02-12T16:42:47.676Z,6.29
2023-02-12T16:45:35.680Z,6.49
2023-02-12T16:48:25.264Z,6.41
2023-02-12T16:51:28.364Z,6.43
2023-02-12T16:54:27.902Z,6.42
2023-02-12T16:57:13.784Z,6.48
2023-02-12T16:59:59.628Z,6.41
2023-02-12T17:02:47.154Z,6.39
2023-02-12T17:05:33.059Z,6.41
2023-02-12T17:08:21.533Z,6.28
2023-02-12T17:11:09.844Z,6.30
2023-02-12T17:13:57.882Z,6.39
2023-02-12T17:16:44.722Z,6.33
2023-02-12T17:19:30.597Z,6.37
2023-02-12T17:22:25.026Z,6.37
2023-02-12T17:25:12.246Z,6.30
2023-02-12T17:27:58.740Z,6.22
2023-02-12T17:30:44.950Z,6.19
2023-02-12T17:33:30.911Z,6.19
2023-02-12T17:36:16.734Z,6.13
2023-02-12T17:39:05.020Z,6.16
2023-02-12T17:41:51.860Z,6.12
2023-02-12T17:44:37.685Z,6.17
2023-02-12T17:47:23.818Z,6.08
2023-02-12T17:50:14.775Z,6.09
2023-02-12T17:53:00.660Z,6.04
2023-02-12T17:55:46.625Z,6.12
2023-02-12T17:58:32.506Z,6.04
2023-02-12T18:01:21.001Z,5.96
2023-02-12T18:04:07.160Z,6.06
2023-02-12T18:06:53.193Z,6.05
2023-02-12T18:09:39.649Z,6.21
2023-02-12T18:12:25.751Z,6.13
2023-02-12T18:15:11.564Z,6.07
2023-02-12T18:17:57.502Z,6.03
2023-02-12T18:20:44.143Z,6.05
2023-02-12T18:23:30.159Z,6.02
2023-02-12T18:26:18.145Z,5.90
2023-02-12T18:29:04.554Z,5.78
2023-02-12T18:31:51.522Z,5.82
2023-02-12T18:34:37.456Z,5.93
2023-02-12T18:37:23.662Z,5.90
2023-02-12T18:40:10.758Z,5.94
2023-02-12T18:42:56.983Z,5.84
2023-02-12T18:45:43.005Z,5.88
2023-02-12T18:48:29.242Z,5.86
2023-02-12T18:51:23.868Z,5.80
2023-02-12T18:54:13.642Z,5.77
2023-02-12T18:56:59.666Z,5.73
2023-02-12T18:59:45.901Z,5.86
2023-02-12T19:02:31.944Z,5.89
2023-02-12T19:05:17.846Z,5.83
2023-02-12T19:08:03.883Z,5.83
2023-02-12T19:10:49.948Z,5.81
2023-02-12T19:13:36.167Z,5.81
2023-02-12T19:16:23.808Z,5.86
2023-02-12T19:19:09.670Z,5.82
2023-02-12T19:21:55.794Z,5.78
2023-02-12T19:24:47.021Z,5.82
2023-02-12T19:27:33.572Z,5.81
2023-02-12T19:30:20.023Z,5.88
2023-02-12T19:33:06.490Z,5.77
2023-02-12T19:35:52.818Z,5.83
2023-02-12T19:38:39.056Z,5.79
2023-02-12T19:41:27.228Z,5.84
2023-02-12T19:44:17.994Z,5.81
2023-02-12T19:47:04.944Z,5.80
2023-02-12T19:49:50.950Z,5.84
2023-02-12T19:52:37.244Z,5.68
2023-02-12T19:55:23.365Z,5.80
2023-02-12T19:58:09.520Z,5.76
2023-02-12T20:00:55.826Z,5.81
2023-02-12T20:03:42.477Z,5.88
2023-02-12T20:06:31.944Z,5.76
2023-02-12T20:09:19.204Z,5.73
2023-02-12T20:12:05.616Z,5.77
2023-02-12T20:14:51.404Z,5.69
2023-02-12T20:17:37.350Z,5.70
2023-02-12T20:20:23.068Z,5.63
2023-02-12T20:23:08.928Z,5.49
2023-02-12T20:25:54.830Z,5.67
2023-02-12T20:28:44.893Z,5.66
2023-02-12T20:31:33.958Z,5.64
2023-02-12T20:34:20.788Z,5.68
2023-02-12T20:37:08.043Z,5.63
2023-02-12T20:39:54.596Z,5.61
2023-02-12T20:42:41.068Z,5.56
2023-02-12T20:45:27.277Z,5.50
2023-02-12T20:48:13.336Z,5.57
2023-02-12T20:51:06.855Z,5.46
2023-02-12T20:53:55.369Z,5.53
2023-02-12T20:56:41.240Z,5.55
2023-02-12T20:59:27.143Z,5.50
2023-02-12T21:02:13.032Z,5.43
2023-02-12T21:04:59.318Z,5.50
2023-02-12T21:07:46.175Z,5.46
2023-02-12T21:10:32.923Z,5.42
2023-02-12T21:13:19.090Z,5.31
2023-02-12T21:16:10.641Z,5.39
2023-02-12T21:18:56.846Z,5.45
2023-02-12T21:21:45.335Z,5.32
2023-02-12T21:24:31.339Z,5.42
2023-02-12T21:27:17.124Z,5.43
2023-02-12T21:30:03.225Z,5.35
2023-02-12T21:32:49.789Z,5.33
2023-02-12T21:35:36.843Z,5.37
2023-02-12T21:38:22.732Z,5.25
2023-02-12T21:41:13.071Z,5.24
2023-02-12T21:44:01.201Z,5.22
2023-02-12T21:46:47.188Z,5.10
2023-02-12T21:49:33.396Z,5.21
2023-02-12T21:52:19.149Z,5.19
2023-02-12T21:55:05.201Z,5.15
2023-02-12T21:57:51.375Z,5.19
2023-02-12T22:00:37.259Z,5.16
2023-02-12T22:03:23.027Z,5.13
2023-02-12T22:06:09.232Z,5.13
2023-02-12T22:09:00.206Z,5.10
2023-02-12T22:11:46.173Z,5.11
2023-02-12T22:14:35.164Z,5.08
2023-02-12T22:17:21.963Z,4.97
2023-02-12T22:20:08.975Z,4.96
2023-02-12T22:22:55.116Z,4.88
2023-02-12T22:25:41.042Z,4.83
2023-02-12T22:28:27.289Z,4.85
2023-02-12T22:31:19.617Z,4.89
2023-02-12T22:34:10.224Z,4.83
2023-02-12T22:36:56.436Z,4.80
2023-02-12T22:39:42.241Z,4.87
2023-02-12T22:42:28.147Z,4.84
2023-02-12T22:45:14.186Z,4.85
2023-02-12T22:48:00.022Z,4.84
2023-02-12T22:50:45.799Z,4.86
2023-02-12T22:53:31.537Z,4.73
2023-02-12T22:56:17.885Z,4.77
2023-02-12T22:59:03.805Z,4.75
2023-02-12T23:01:49.592Z,4.70
2023-02-12T23:04:36.634Z,4.79
2023-02-12T23:07:22.670Z,4.75
2023-02-12T23:10:08.805Z,4.77
2023-02-12T23:12:54.918Z,4.75
2023-02-12T23:15:40.698Z,4.77
2023-02-12T23:18:26.480Z,4.79
2023-02-12T23:21:12.447Z,4.80
2023-02-12T23:24:01.521Z,4.80
2023-02-12T23:26:47.495Z,4.79
2023-02-12T23:29:34.279Z,4.81
2023-02-12T23:32:20.277Z,4.82
2023-02-12T23:35:06.346Z,4.76
2023-02-12T23:37:52.658Z,4.66
2023-02-12T23:40:39.223Z,4.73
2023-02-12T23:43:25.042Z,4.65
2023-02-12T23:46:11.178Z,4.74
2023-02-12T23:48:57.305Z,4.73
2023-02-12T23:51:43.125Z,4.71
2023-02-12T23:54:29.095Z,4.70
2023-02-12T23:57:14.853Z,4.72
